createdAt,value
2023-02-27T00:04:14.934Z,100962.52
2023-02-27T00:09:18.052Z,100967.80
2023-02-27T00:14:21.157Z,100971.96
2023-02-27T00:19:24.157Z,100978.16
2023-02-27T00:24:27.258Z,100984.55
2023-02-27T00:29:30.360Z,100985.68
2023-02-27T00:34:33.567Z,100985.34
2023-02-27T00:39:36.776Z,100984.20
2023-02-27T00:44:41.110Z,100990.10
2023-02-27T00:49:44.155Z,100993.02
2023-02-27T00:54:47.222Z,100999.20
2023-02-27T00:59:50.322Z,101009.23
2023-02-27T01:04:53.337Z,101013.79
2023-02-27T01:09:56.639Z,101021.37
2023-02-27T01:14:59.544Z,101024.98
2023-02-27T01:20:04.092Z,101027.81
2023-02-27T01:25:08.199Z,101030.45
2023-02-27T01:30:12.848Z,101024.55
2023-02-27T01:35:16.373Z,101033.63
2023-02-27T01:40:19.833Z,101037.98
2023-02-27T01:45:35.875Z,101042.58
2023-02-27T01:50:45.855Z,101048.52
2023-02-27T01:55:49.988Z,101056.08
2023-02-27T02:00:53.668Z,101063.79
2023-02-27T02:05:58.680Z,101072.25
2023-02-27T02:11:03.618Z,101076.64
2023-02-27T02:16:38.167Z,101076.30
2023-02-27T02:21:53.435Z,101081.02
2023-02-27T02:27:21.118Z,101087.35
2023-02-27T02:32:43.172Z,101091.36
2023-02-27T02:38:24.577Z,101095.37
2023-02-27T02:43:46.730Z,101101.48
2023-02-27T02:49:14.099Z,101110.59
2023-02-27T02:54:31.232Z,101117.63
2023-02-27T02:59:43.044Z,101123.74
2023-02-27T03:04:59.244Z,101130.20
2023-02-27T03:10:27.755Z,101130.52
2023-02-27T03:15:40.001Z,101130.86
2023-02-27T03:20:49.709Z,101135.77
2023-02-27T03:25:54.564Z,101146.11
2023-02-27T03:31:10.150Z,101142.86
2023-02-27T03:36:49.427Z,101145.07
2023-02-27T03:42:22.636Z,101147.32
2023-02-27T03:47:26.064Z,101154.77
2023-02-27T03:52:30.588Z,101162.56
2023-02-27T03:57:36.772Z,101168.44
2023-02-27T04:02:42.156Z,101177.60
2023-02-27T04:07:57.109Z,101179.58
2023-02-27T04:13:41.894Z,101177.90
2023-02-27T04:19:04.758Z,101179.40
2023-02-27T04:24:25.989Z,101187.52
2023-02-27T04:29:51.010Z,101196.38
2023-02-27T04:34:59.856Z,101205.72
2023-02-27T04:40:10.654Z,101212.45
2023-02-27T04:45:18.870Z,101215.99
2023-02-27T04:50:37.436Z,101219.89
2023-02-27T04:55:47.808Z,101227.61
2023-02-27T05:00:57.288Z,101233.75
2023-02-27T05:06:01.920Z,101239.41
2023-02-27T05:11:07.885Z,101249.96
2023-02-27T05:16:33.479Z,101253.18
2023-02-27T05:21:59.761Z,101256.03
2023-02-27T05:27:14.846Z,101266.08
2023-02-27T05:32:49.904Z,101271.81
2023-02-27T05:38:21.076Z,101278.48
2023-02-27T05:43:31.105Z,101286.21
2023-02-27T05:48:43.139Z,101294.45
2023-02-27T05:53:53.310Z,101294.52
2023-02-27T05:59:24.272Z,101303.34
2023-02-27T06:04:27.590Z,101314.32
2023-02-27T06:09:30.892Z,101312.16
2023-02-27T06:14:33.897Z,101322.80
2023-02-27T06:19:36.903Z,101329.10
2023-02-27T06:24:40.006Z,101338.80
2023-02-27T06:29:43.010Z,101347.38
2023-02-27T06:34:46.211Z,101345.58
2023-02-27T06:39:49.418Z,101344.98
2023-02-27T06:44:52.628Z,101353.44
2023-02-27T06:49:55.627Z,101362.23
2023-02-27T06:54:59.758Z,101366.16
2023-02-27T07:00:05.472Z,101370.81
2023-02-27T07:05:12.232Z,101379.71
2023-02-27T07:10:16.443Z,101376.85
2023-02-27T07:15:19.552Z,101378.80
2023-02-27T07:20:22.553Z,101381.44
2023-02-27T07:25:25.668Z,101382.03
2023-02-27T07:30:30.924Z,101387.85
2023-02-27T07:35:34.330Z,101393.43
2023-02-27T07:40:37.744Z,101398.05
2023-02-27T07:45:41.162Z,101404.57
2023-02-27T07:50:44.469Z,101414.07
2023-02-27T07:55:47.879Z,101419.72
2023-02-27T08:00:53.754Z,101426.06
2023-02-27T08:05:56.968Z,101430.46
2023-02-27T08:10:59.963Z,101433.38
2023-02-27T08:16:03.207Z,101438.50
2023-02-27T08:21:06.802Z,101438.96
2023-02-27T08:26:09.890Z,101443.20
2023-02-27T08:31:13.572Z,101444.15
2023-02-27T08:36:17.023Z,101451.63
2023-02-27T08:41:20.346Z,101458.99
2023-02-27T08:46:23.443Z,101468.86
2023-02-27T08:51:27.121Z,101469.59
2023-02-27T08:56:30.873Z,101463.45
2023-02-27T09:01:34.895Z,101467.88
2023-02-27T09:06:38.314Z,101475.69
2023-02-27T09:11:41.732Z,101475.04
2023-02-27T09:16:45.601Z,101478.38
2023-02-27T09:21:49.167Z,101485.98
2023-02-27T09:26:52.784Z,101499.91
2023-02-27T09:31:56.232Z,101491.99
2023-02-27T09:37:01.523Z,101491.20
2023-02-27T09:42:17.770Z,101495.23
2023-02-27T09:47:28.888Z,101493.30
2023-02-27T09:52:35.972Z,101495.57
2023-02-27T09:57:52.278Z,101497.81
2023-02-27T10:03:23.197Z,101508.64
2023-02-27T10:08:38.426Z,101513.52
2023-02-27T10:13:50.029Z,101508.63
2023-02-27T10:18:58.569Z,101504.83
2023-02-27T10:24:27.626Z,101508.38
2023-02-27T10:29:43.074Z,101517.83
2023-02-27T10:34:54.783Z,101523.52
2023-02-27T10:40:06.343Z,101528.40
2023-02-27T10:45:17.706Z,101529.38
2023-02-27T10:50:25.602Z,101529.64
2023-02-27T10:55:35.976Z,101533.63
2023-02-27T11:00:39.482Z,101535.25
2023-02-27T11:05:43.205Z,101531.23
2023-02-27T11:10:57.380Z,101529.38
2023-02-27T11:16:18.691Z,101536.39
2023-02-27T11:21:25.871Z,101539.65
2023-02-27T11:26:36.690Z,101543.28
2023-02-27T11:31:44.234Z,101542.79
2023-02-27T11:36:51.196Z,101533.23
2023-02-27T11:41:56.974Z,101525.58
2023-02-27T11:47:34.246Z,101523.34
2023-02-27T11:52:57.448Z,101525.56
2023-02-27T11:58:22.474Z,101525.02
2023-02-27T12:03:48.438Z,101518.65
2023-02-27T12:08:57.130Z,101516.92
2023-02-27T12:14:18.470Z,101517.17
2023-02-27T12:19:34.431Z,101519.95
2023-02-27T12:24:53.984Z,101522.24
2023-02-27T12:30:17.272Z,101520.98
2023-02-27T12:35:28.425Z,101524.31
2023-02-27T12:40:38.540Z,101526.84
2023-02-27T12:45:42.418Z,101530.70
2023-02-27T12:50:48.814Z,101537.30
2023-02-27T12:56:20.911Z,101543.63
2023-02-27T13:01:41.620Z,101550.29
2023-02-27T13:07:02.959Z,101545.02
2023-02-27T13:12:18.602Z,101539.79
2023-02-27T13:17:28.474Z,101540.81
2023-02-27T13:22:40.647Z,101543.63
2023-02-27T13:27:53.067Z,101548.03
2023-02-27T13:33:26.129Z,101553.69
2023-02-27T13:38:54.888Z,101554.39
2023-02-27T13:44:20.125Z,101559.70
2023-02-27T13:49:29.678Z,101562.98
2023-02-27T13:54:40.187Z,101563.47
2023-02-27T14:00:01.898Z,101563.39
2023-02-27T14:05:08.896Z,101558.88
2023-02-27T14:10:25.408Z,101555.91
2023-02-27T14:15:32.403Z,101561.59
2023-02-27T14:20:36.221Z,101563.98
2023-02-27T14:26:01.870Z,101565.40
2023-02-27T14:31:32.709Z,101564.46
2023-02-27T14:36:44.527Z,101574.71
2023-02-27T14:42:27.093Z,101583.16
2023-02-27T14:47:36.197Z,101584.61
2023-02-27T14:52:44.119Z,101584.90
2023-02-27T14:58:17.544Z,101591.41
2023-02-27T15:03:26.661Z,101595.95
2023-02-27T15:08:35.011Z,101594.39
2023-02-27T15:13:40.064Z,101599.03
2023-02-27T15:18:46.042Z,101605.96
2023-02-27T15:24:00.511Z,101602.75
2023-02-27T15:29:08.839Z,101600.16
2023-02-27T15:34:14.929Z,101609.12
2023-02-27T15:39:22.037Z,101609.48
2023-02-27T15:44:30.541Z,101612.10
2023-02-27T15:49:34.161Z,101620.20
2023-02-27T15:54:37.165Z,101621.77
2023-02-27T15:59:43.439Z,101623.64
2023-02-27T16:04:47.583Z,101626.23
2023-02-27T16:09:58.875Z,101636.01
2023-02-27T16:15:27.463Z,101637.83
2023-02-27T16:20:38.963Z,101648.73
2023-02-27T16:25:59.174Z,101653.15
2023-02-27T16:31:03.103Z,101660.73
2023-02-27T16:36:21.907Z,101664.13
2023-02-27T16:41:25.870Z,101670.91
2023-02-27T16:46:31.495Z,101675.23
2023-02-27T16:51:35.869Z,101680.80
2023-02-27T16:56:40.977Z,101689.06
2023-02-27T17:01:45.385Z,101696.59
2023-02-27T17:06:49.829Z,101704.90
2023-02-27T17:11:53.547Z,101715.50
2023-02-27T17:16:58.567Z,101719.34
2023-02-27T17:22:02.624Z,101728.01
2023-02-27T17:27:06.519Z,101734.06
2023-02-27T17:32:11.920Z,101740.15
2023-02-27T17:37:15.729Z,101750.34
2023-02-27T17:42:19.763Z,101754.45
2023-02-27T17:47:23.279Z,101755.88
2023-02-27T17:52:27.608Z,101757.46
2023-02-27T17:57:31.234Z,101756.79
2023-02-27T18:02:36.320Z,101760.27
2023-02-27T18:07:40.607Z,101766.36
2023-02-27T18:12:43.934Z,101767.08
2023-02-27T18:17:47.433Z,101766.90
2023-02-27T18:22:50.951Z,101768.09
2023-02-27T18:27:58.437Z,101771.54
2023-02-27T18:33:01.977Z,101777.59
2023-02-27T18:38:05.180Z,101780.48
2023-02-27T18:43:11.083Z,101781.61
2023-02-27T18:48:17.738Z,101785.70
2023-02-27T18:53:21.874Z,101789.23
2023-02-27T18:58:26.100Z,101794.93
2023-02-27T19:03:30.197Z,101800.77
2023-02-27T19:08:34.835Z,101809.20
2023-02-27T19:13:39.103Z,101814.66
2023-02-27T19:18:43.247Z,101815.75
2023-02-27T19:23:48.557Z,101820.60
2023-02-27T19:28:54.548Z,101827.23
2023-02-27T19:33:58.381Z,101834.71
2023-02-27T19:39:03.491Z,101836.73
2023-02-27T19:44:08.077Z,101837.58
2023-02-27T19:49:11.590Z,101847.31
2023-02-27T19:54:17.144Z,101847.66
2023-02-27T19:59:25.776Z,101854.05
2023-02-27T20:04:30.227Z,101859.39
2023-02-27T20:09:34.462Z,101859.73
2023-02-27T20:14:38.279Z,101861.17
2023-02-27T20:19:42.417Z,101866.55
2023-02-27T20:24:46.618Z,101869.64
2023-02-27T20:29:57.536Z,101874.14
2023-02-27T20:35:01.144Z,101880.78
2023-02-27T20:40:09.169Z,101882.66
2023-02-27T20:45:15.333Z,101887.17
2023-02-27T20:50:19.998Z,101888.54
2023-02-27T20:55:25.038Z,101889.09
2023-02-27T21:00:33.482Z,101888.55
2023-02-27T21:05:37.805Z,101895.23
2023-02-27T21:10:41.833Z,101895.44
2023-02-27T21:15:45.911Z,101897.77
2023-02-27T21:20:49.068Z,101903.48
2023-02-27T21:25:52.801Z,101900.63
2023-02-27T21:30:55.908Z,101901.80
2023-02-27T21:35:59.232Z,101904.56
2023-02-27T21:41:10.414Z,101902.76
2023-02-27T21:46:14.974Z,101905.09
2023-02-27T21:51:33.013Z,101906.17
2023-02-27T21:56:41.363Z,101908.61
2023-02-27T22:01:47.680Z,101911.57
2023-02-27T22:06:52.352Z,101917.52
2023-02-27T22:11:55.762Z,101915.84
2023-02-27T22:16:58.966Z,101910.52
2023-02-27T22:22:02.079Z,101909.91
2023-02-27T22:27:06.048Z,101903.02
2023-02-27T22:32:09.119Z,101901.02
2023-02-27T22:37:15.377Z,101901.43
2023-02-27T22:42:18.393Z,101900.80
2023-02-27T22:47:21.693Z,101901.56
2023-02-27T22:52:24.911Z,101897.10
2023-02-27T22:57:28.107Z,101898.55
2023-02-27T23:02:33.673Z,101904.88
2023-02-27T23:07:36.886Z,101905.64
2023-02-27T23:12:39.886Z,101910.41
2023-02-27T23:17:52.941Z,101913.78
2023-02-27T23:23:01.145Z,101916.64
2023-02-27T23:28:05.583Z,101918.98
2023-02-27T23:33:08.589Z,101920.43
2023-02-27T23:38:11.894Z,101916.83
2023-02-27T23:43:15.511Z,101915.69
2023-02-27T23:48:21.995Z,101917.05
2023-02-27T23:53:25.102Z,101920.48
2023-02-27T23:58:28.006Z,101919.12
